KONTKVNY

Guest
Details From KONT - Ontario Intl
To KVNY - Van Nuys
Flight Number -
Tags Routegen Generated
Created
Modified
Stats Distance 51 nm / 95 km
Max Altitude 200 ft / 61 m
Waypoints 5
Social Downloads 0
Likes 0
Share VATSIM

Download

Looking for another format? Having issues loading an existing format? Contact us
Advertisement - Login to hide

Notes

Departing runway 26 KONT. Arriving runway 17 KVNY.

Route

KONT +34.05_-117.70 +34.05_-118.09 +34.05_-118.48 KVNY

ID Type Via Altitude Latitude Longitude Leg Dist Tot Dist Heading (true) Name
O KONT APT - 200 ft / 61 m 34.05494˚ -117.61617˚ - 0 nm - -
+34.05_-117.70 DME - 200 ft / 61 m 34.05487˚ -117.70352˚ 4 nm 4 nm 270° / 270° -
+34.05_-118.09 DME - 200 ft / 61 m 34.05379˚ -118.08955˚ 19 nm 23 nm 270° / 270° -
+34.05_-118.48 DME - 200 ft / 61 m 34.05270˚ -118.47557˚ 19 nm 42 nm 270° / 270° -
O KVNY APT - 0 ft / 0 m 34.19699˚ -118.48917˚ 8 nm 51 nm 356° / 356° -

Altitude Profile

Advertisement - Login to hide

KONT

Details ICAO KONT (ONT)
Name Ontario Intl
Region United States
Timezone America/Los_Angeles (UTC-8.0)
Stats Elevation 944 ft / 288 m (AMSL)
Location 34.055917° -117.600853°
Runways 2
Magnetic Variation 11.863° E

METAR

KONT 121653Z 34003KT 10SM FEW140 FEW250 17/M11 A3022 RMK AO2 SLP225 FU FEW140 T01721111

Decode

TAF

TAF KONT 121120Z 1212/1318 VRB06KT P6SM SKC

Decode

Departure Runways

ID Width Length Bearing (true) Bearing (mag) Surface Threshold Offset Overrun Length
08L 151 ft / 46 m 12,279 ft / 3,743 m 89.96° 78.10° Concrete 997 ft / 304 m 400 ft / 122 m
26L 151 ft / 46 m 10,269 ft / 3,130 m 269.97° 258.11° Concrete 0 ft / 0 m 400 ft / 122 m
26R 151 ft / 46 m 12,279 ft / 3,743 m 269.99° 258.13° Concrete 0 ft / 0 m 400 ft / 122 m
8R 151 ft / 46 m 10,269 ft / 3,130 m 89.95° 78.09° Concrete 0 ft / 0 m 400 ft / 122 m

KVNY

Details ICAO KVNY (VNY)
Name Van Nuys
Region United States
Timezone America/Los_Angeles (UTC-8.0)
Stats Elevation 802 ft / 244 m (AMSL)
Location 34.210723° -118.489841°
Runways 2
Magnetic Variation 12.075° E

METAR

KVNY 121651Z 35007KT 10SM CLR 21/M24 A3021 RMK AO2 SLP222 T02061244

Decode

TAF

KVNY 121500Z 1215/1312 VRB03KT P6SM SKC FM121600 36012KT P6SM SKC FM130400 36006KT P6SM SKC

Decode

Destination Runways

ID Width Length Bearing (true) Bearing (mag) Surface Threshold Offset Overrun Length
16L 75 ft / 23 m 4,021 ft / 1,226 m 175.53° 163.45° Asphalt 1,430 ft / 436 m 0 ft / 0 m
16R 151 ft / 46 m 8,022 ft / 2,445 m 175.54° 163.46° Asphalt 1,430 ft / 436 m 151 ft / 46 m
34L 151 ft / 46 m 8,022 ft / 2,445 m 355.54° 343.46° Asphalt 0 ft / 0 m 151 ft / 46 m
34R 75 ft / 23 m 4,021 ft / 1,226 m 355.53° 343.45° Asphalt 0 ft / 0 m 0 ft / 0 m

Approach Navaids

Runway Type Ident Frequency Range Bearing (true) Bearing (mag) Slope Elevation
16R Localiser IVNY 111.30 MHz 18 nm / 33 km 175.54° 163.46° - 741 ft / 226 m (AMSL)
16R Glidescope IVNY 111.30 MHz 10 nm / 19 km 175.54° 163.46° 3.90° 784 ft / 239 m (AMSL)